createdAt,value
2019-04-03T00:00:34.521Z,7.30
2019-04-03T00:01:45.298Z,7.30
2019-04-03T00:02:48.732Z,7.30
2019-04-03T00:03:52.965Z,7.30
2019-04-03T00:04:59.145Z,7.30
2019-04-03T00:06:03.700Z,7.30
2019-04-03T00:07:08.842Z,7.30
2019-04-03T00:08:12.963Z,7.30
2019-04-03T00:09:17.320Z,7.30
2019-04-03T00:10:24.698Z,7.30
2019-04-03T00:11:30.043Z,7.30
2019-04-03T00:12:34.219Z,7.30
2019-04-03T00:13:41.474Z,7.30
2019-04-03T00:14:44.207Z,7.30
2019-04-03T00:15:48.400Z,7.30
2019-04-03T00:16:53.159Z,7.30
2019-04-03T00:17:57.286Z,7.30
2019-04-03T00:19:01.354Z,7.30
2019-04-03T00:20:10.507Z,7.30
2019-04-03T00:21:14.631Z,7.30
2019-04-03T00:22:19.726Z,7.30
2019-04-03T00:23:24.706Z,7.30
2019-04-03T00:24:28.808Z,7.30
2019-04-03T00:25:34.551Z,7.30
2019-04-03T00:26:38.857Z,7.30
2019-04-03T00:27:43.739Z,7.30
2019-04-03T00:28:47.879Z,7.30
2019-04-03T00:29:52.247Z,7.30
2019-04-03T00:30:58.290Z,7.30
2019-04-03T00:32:02.550Z,7.30
2019-04-03T00:33:09.268Z,7.30
2019-04-03T00:34:13.552Z,7.30
2019-04-03T00:35:18.102Z,7.30
2019-04-03T00:36:23.417Z,7.30
2019-04-03T00:37:28.191Z,7.30
2019-04-03T00:38:39.026Z,7.30
2019-04-03T00:39:38.242Z,7.30
2019-04-03T00:40:42.323Z,7.30
2019-04-03T00:41:46.430Z,7.20
2019-04-03T00:42:50.648Z,7.30
2019-04-03T00:43:55.053Z,7.20
2019-04-03T00:44:59.486Z,7.20
2019-04-03T00:46:03.693Z,7.30
2019-04-03T00:47:08.038Z,7.20
2019-04-03T00:48:12.209Z,7.30
2019-04-03T00:49:17.266Z,7.20
2019-04-03T00:50:22.491Z,7.20
2019-04-03T00:51:28.245Z,7.20
2019-04-03T00:52:32.367Z,7.30
2019-04-03T00:53:36.461Z,7.20
2019-04-03T00:54:40.600Z,7.20
2019-04-03T00:55:44.754Z,7.20
2019-04-03T00:56:48.866Z,7.20
2019-04-03T00:57:56.836Z,7.20
2019-04-03T00:59:26.866Z,7.20
2019-04-03T01:01:54.757Z,7.20
2019-04-03T01:03:01.302Z,7.20
2019-04-03T01:04:09.060Z,7.30
2019-04-03T01:05:15.859Z,7.20
2019-04-03T01:06:19.324Z,7.30
2019-04-03T01:07:28.793Z,7.20
2019-04-03T01:08:32.064Z,7.20
2019-04-03T01:09:37.300Z,7.20
2019-04-03T01:10:41.496Z,7.20
2019-04-03T01:11:46.851Z,7.20
2019-04-03T01:12:50.975Z,7.20
2019-04-03T01:13:55.100Z,7.20
2019-04-03T01:15:01.149Z,7.20
2019-04-03T01:16:05.653Z,7.20
2019-04-03T01:17:11.145Z,7.20
2019-04-03T01:18:15.151Z,7.20
2019-04-03T01:19:19.349Z,7.20
2019-04-03T01:20:23.561Z,7.20
2019-04-03T01:21:29.087Z,7.20
2019-04-03T01:22:33.163Z,7.20
2019-04-03T01:23:38.062Z,7.20
2019-04-03T01:24:42.297Z,7.20
2019-04-03T01:25:46.476Z,7.20
2019-04-03T01:26:50.549Z,7.20
2019-04-03T01:27:54.627Z,7.20
2019-04-03T01:28:58.834Z,7.20
2019-04-03T01:30:03.010Z,7.20
2019-04-03T01:31:07.225Z,7.20
2019-04-03T01:32:11.347Z,7.10
2019-04-03T01:33:16.436Z,7.20
2019-04-03T01:34:21.062Z,7.10
2019-04-03T01:35:25.225Z,7.10
2019-04-03T01:36:29.433Z,7.10
2019-04-03T01:37:33.508Z,7.10
2019-04-03T01:38:37.716Z,7.10
2019-04-03T01:39:41.870Z,7.00
2019-04-03T01:40:46.003Z,7.10
2019-04-03T01:41:51.510Z,7.00
2019-04-03T01:42:55.915Z,7.00
2019-04-03T01:43:59.967Z,7.00
2019-04-03T01:45:04.693Z,7.00
2019-04-03T01:46:11.690Z,7.00
2019-04-03T01:47:15.726Z,7.00
2019-04-03T01:48:19.881Z,7.00
2019-04-03T01:49:24.033Z,7.00
2019-04-03T01:50:28.630Z,7.00
2019-04-03T01:51:33.238Z,6.90
2019-04-03T01:52:38.941Z,6.90
2019-04-03T01:53:43.056Z,6.90
2019-04-03T01:54:47.185Z,6.90
2019-04-03T01:55:51.333Z,6.90
2019-04-03T01:56:55.429Z,6.90
2019-04-03T01:57:59.519Z,6.80
2019-04-03T01:59:04.786Z,6.90
2019-04-03T02:00:09.965Z,6.80
2019-04-03T02:01:14.086Z,6.80
2019-04-03T02:02:19.528Z,6.80
2019-04-03T02:03:23.671Z,6.80
2019-04-03T02:04:27.961Z,6.80
2019-04-03T02:05:32.168Z,6.80
2019-04-03T02:06:36.259Z,6.80
2019-04-03T02:07:40.936Z,6.70
2019-04-03T02:08:45.513Z,6.70
2019-04-03T02:09:49.780Z,6.70
2019-04-03T02:10:53.886Z,6.70
2019-04-03T02:11:58.088Z,6.70
2019-04-03T02:13:03.752Z,6.60
2019-04-03T02:14:07.842Z,6.60
2019-04-03T02:15:12.091Z,6.60
2019-04-03T02:16:17.819Z,6.60
2019-04-03T02:17:24.071Z,6.60
2019-04-03T02:18:27.605Z,6.60
2019-04-03T02:19:31.818Z,6.60
2019-04-03T02:20:36.017Z,6.60
2019-04-03T02:21:40.155Z,6.50
2019-04-03T02:22:44.374Z,6.50
2019-04-03T02:23:48.457Z,6.50
2019-04-03T02:24:53.261Z,6.50
2019-04-03T02:25:57.376Z,6.50
2019-04-03T02:27:03.326Z,6.40
2019-04-03T02:28:07.697Z,6.40
2019-04-03T02:29:11.787Z,6.40
2019-04-03T02:30:16.207Z,6.40
2019-04-03T02:31:22.705Z,6.40
2019-04-03T02:32:27.068Z,6.40
2019-04-03T02:33:31.697Z,6.40
2019-04-03T02:34:36.628Z,6.30
2019-04-03T02:35:41.050Z,6.30
2019-04-03T02:36:45.654Z,6.30
2019-04-03T02:37:50.771Z,6.30
2019-04-03T02:38:55.023Z,6.30
2019-04-03T02:40:00.465Z,6.30
2019-04-03T02:41:05.245Z,6.30
2019-04-03T02:42:09.939Z,6.30
2019-04-03T02:43:15.384Z,6.20
2019-04-03T02:44:20.097Z,6.20
2019-04-03T02:45:25.067Z,6.20
2019-04-03T02:46:29.158Z,6.20
2019-04-03T02:47:34.416Z,6.20
2019-04-03T02:48:39.003Z,6.20
2019-04-03T02:49:43.904Z,6.20
2019-04-03T02:50:48.581Z,6.20
2019-04-03T02:51:53.773Z,6.20
2019-04-03T02:52:59.123Z,6.10
2019-04-03T02:54:04.268Z,6.10
2019-04-03T02:55:08.875Z,6.10
2019-04-03T02:56:13.880Z,6.10
2019-04-03T02:57:19.534Z,6.10
2019-04-03T02:58:23.912Z,6.10
2019-04-03T02:59:28.120Z,6.10
2019-04-03T03:00:34.230Z,6.10
2019-04-03T03:01:39.814Z,6.10
2019-04-03T03:02:45.519Z,6.00
2019-04-03T03:03:50.659Z,6.00
2019-04-03T03:04:55.641Z,6.00
2019-04-03T03:06:01.546Z,6.00
2019-04-03T03:07:05.783Z,6.00
2019-04-03T03:08:10.224Z,6.00
2019-04-03T03:09:14.709Z,6.00
2019-04-03T03:10:20.132Z,6.00
2019-04-03T03:11:26.329Z,5.90
2019-04-03T03:12:31.042Z,6.00
2019-04-03T03:13:36.922Z,5.90
2019-04-03T03:14:41.220Z,5.90
2019-04-03T03:15:45.585Z,5.90
2019-04-03T03:16:50.970Z,5.90
2019-04-03T03:17:56.273Z,5.90
2019-04-03T03:19:01.847Z,5.90
2019-04-03T03:20:07.949Z,5.90
2019-04-03T03:21:14.302Z,5.90
2019-04-03T03:22:21.284Z,5.90
2019-04-03T03:23:27.426Z,5.80
2019-04-03T03:24:34.477Z,5.80
2019-04-03T03:25:38.938Z,5.80
2019-04-03T03:26:43.288Z,5.80
2019-04-03T03:27:48.869Z,5.80
2019-04-03T03:28:53.410Z,5.80
2019-04-03T03:29:59.739Z,5.80
2019-04-03T03:31:05.949Z,5.80
2019-04-03T03:32:18.704Z,5.80
2019-04-03T03:33:32.954Z,5.80
2019-04-03T03:34:45.855Z,5.80
2019-04-03T03:35:39.168Z,5.80
2019-04-03T03:36:37.095Z,5.80
2019-04-03T03:37:41.770Z,5.70
2019-04-03T03:38:46.480Z,5.70
2019-04-03T03:39:52.482Z,5.70
2019-04-03T03:40:59.470Z,5.70
2019-04-03T03:42:05.181Z,5.70
2019-04-03T03:43:10.428Z,5.70
2019-04-03T03:44:16.157Z,5.70
2019-04-03T03:45:21.705Z,5.70
2019-04-03T03:46:28.897Z,5.70
2019-04-03T03:47:36.415Z,5.70
2019-04-03T03:48:43.804Z,5.70
2019-04-03T03:49:49.757Z,5.70
2019-04-03T03:50:57.502Z,5.60
2019-04-03T03:52:04.004Z,5.60
2019-04-03T03:53:11.455Z,5.60
2019-04-03T03:54:18.436Z,5.60
2019-04-03T03:55:25.430Z,5.60
2019-04-03T03:56:32.701Z,5.60
2019-04-03T03:57:40.492Z,5.60
2019-04-03T03:58:46.157Z,5.60
2019-04-03T03:59:52.450Z,5.60
2019-04-03T04:00:59.549Z,5.60
2019-04-03T04:02:05.195Z,5.60
2019-04-03T04:03:10.830Z,5.50
2019-04-03T04:04:16.124Z,5.60
2019-04-03T04:05:22.249Z,5.50
2019-04-03T04:06:29.397Z,5.50
2019-04-03T04:07:36.492Z,5.50
2019-04-03T04:08:42.633Z,5.50
2019-04-03T04:09:49.649Z,5.50
2019-04-03T04:10:52.313Z,5.50
2019-04-03T04:11:57.690Z,5.50
2019-04-03T04:13:01.877Z,5.50
2019-04-03T04:14:06.401Z,5.50
2019-04-03T04:15:10.877Z,5.50
2019-04-03T04:16:15.330Z,5.50
2019-04-03T04:17:20.675Z,5.50
2019-04-03T04:18:25.667Z,5.40
2019-04-03T04:19:31.094Z,5.50
2019-04-03T04:20:37.739Z,5.40
2019-04-03T04:21:44.445Z,5.40
2019-04-03T04:22:50.420Z,5.50
2019-04-03T04:23:55.867Z,5.50
2019-04-03T04:25:05.667Z,5.40
2019-04-03T04:26:09.189Z,5.40
2019-04-03T04:27:13.497Z,5.40
2019-04-03T04:28:20.875Z,5.40
2019-04-03T04:29:26.649Z,5.40
2019-04-03T04:30:31.583Z,5.40
2019-04-03T04:31:37.100Z,5.50
2019-04-03T04:32:41.284Z,5.40
2019-04-03T04:33:45.777Z,5.40
2019-04-03T04:34:51.444Z,5.40
2019-04-03T04:35:55.510Z,5.40
2019-04-03T04:37:02.075Z,5.40
2019-04-03T04:38:05.394Z,5.40
2019-04-03T04:39:09.935Z,5.50
2019-04-03T04:40:14.346Z,5.40
2019-04-03T04:41:18.497Z,5.40
2019-04-03T04:42:22.643Z,5.40
2019-04-03T04:43:26.727Z,5.50
2019-04-03T04:44:31.943Z,5.50
2019-04-03T04:45:38.811Z,5.40
2019-04-03T04:46:47.026Z,5.50
2019-04-03T04:47:51.969Z,5.50
2019-04-03T04:49:03.177Z,5.40
2019-04-03T04:50:09.405Z,5.50
2019-04-03T04:51:14.193Z,5.50
2019-04-03T04:52:18.400Z,5.50
2019-04-03T04:53:22.506Z,5.50
2019-04-03T04:54:26.604Z,5.50
2019-04-03T04:55:31.542Z,5.50
2019-04-03T04:56:38.454Z,5.50
2019-04-03T04:57:42.559Z,5.50
2019-04-03T04:58:46.723Z,5.50
2019-04-03T04:59:50.887Z,5.60
2019-04-03T05:00:55.651Z,5.60
2019-04-03T05:01:59.779Z,5.60
2019-04-03T05:03:03.990Z,5.60
2019-04-03T05:04:08.356Z,5.60
2019-04-03T05:05:12.786Z,5.60
2019-04-03T05:06:17.026Z,5.60
2019-04-03T05:07:21.088Z,5.60
2019-04-03T05:08:25.247Z,5.60
2019-04-03T05:09:29.467Z,5.60
2019-04-03T05:10:36.418Z,5.70
2019-04-03T05:11:39.486Z,5.70
2019-04-03T05:12:45.329Z,5.70
2019-04-03T05:13:50.962Z,5.70
2019-04-03T05:14:55.547Z,5.70
2019-04-03T05:15:59.722Z,5.80
2019-04-03T05:17:04.043Z,5.70
2019-04-03T05:18:08.090Z,5.80
2019-04-03T05:19:18.492Z,5.70
2019-04-03T05:20:20.443Z,5.80
2019-04-03T05:21:24.671Z,5.80
2019-04-03T05:22:28.780Z,5.80
2019-04-03T05:23:33.143Z,5.80
2019-04-03T05:24:37.368Z,5.80
2019-04-03T05:25:41.510Z,5.90
2019-04-03T05:26:45.581Z,5.90
2019-04-03T05:27:49.648Z,5.90
2019-04-03T05:28:57.478Z,5.90
2019-04-03T05:30:00.775Z,5.90
2019-04-03T05:31:07.644Z,5.90
2019-04-03T05:32:10.816Z,5.90
2019-04-03T05:33:15.596Z,6.00
2019-04-03T05:34:19.957Z,6.00
2019-04-03T05:35:24.161Z,6.00
2019-04-03T05:36:28.316Z,6.00
2019-04-03T05:37:33.537Z,6.00
2019-04-03T05:38:38.758Z,6.00
2019-04-03T05:39:42.942Z,6.10
2019-04-03T05:40:47.008Z,6.10
2019-04-03T05:41:52.683Z,6.10
2019-04-03T05:42:58.118Z,6.10
2019-04-03T05:44:02.864Z,6.10
2019-04-03T05:45:09.025Z,6.10
2019-04-03T05:46:15.855Z,6.20
2019-04-03T05:47:20.873Z,6.20
2019-04-03T05:48:25.071Z,6.20
2019-04-03T05:49:29.205Z,6.20
2019-04-03T05:50:35.820Z,6.30
2019-04-03T05:51:41.429Z,6.30
2019-04-03T05:52:45.813Z,6.30
2019-04-03T05:53:49.989Z,6.30
2019-04-03T05:54:54.314Z,6.30
2019-04-03T05:55:58.553Z,6.30
2019-04-03T05:57:02.622Z,6.40
2019-04-03T05:58:06.793Z,6.40
2019-04-03T05:59:10.845Z,6.40
2019-04-03T06:00:15.234Z,6.40
2019-04-03T06:01:20.515Z,6.50
2019-04-03T06:02:24.803Z,6.50
2019-04-03T06:03:39.441Z,6.50
2019-04-03T06:04:35.046Z,6.50
2019-04-03T06:05:43.240Z,6.50
2019-04-03T06:06:47.329Z,6.60
2019-04-03T06:07:51.820Z,6.60
2019-04-03T06:08:56.763Z,6.60
2019-04-03T06:10:01.524Z,6.60
2019-04-03T06:11:08.250Z,6.70
2019-04-03T06:12:13.885Z,6.70
2019-04-03T06:13:17.619Z,6.70
2019-04-03T06:14:23.931Z,6.70
2019-04-03T06:15:29.497Z,6.70
2019-04-03T06:16:33.936Z,6.80
2019-04-03T06:17:39.301Z,6.80
2019-04-03T06:18:43.403Z,6.80
2019-04-03T06:19:47.721Z,6.80
2019-04-03T06:20:54.157Z,6.90
2019-04-03T06:21:59.166Z,6.90
2019-04-03T06:23:03.357Z,6.90
2019-04-03T06:24:07.584Z,6.90
2019-04-03T06:25:13.681Z,7.00
2019-04-03T06:26:20.257Z,7.00
2019-04-03T06:27:27.574Z,7.00
2019-04-03T06:28:31.371Z,7.00
2019-04-03T06:29:35.935Z,7.00
2019-04-03T06:34:45.839Z,7.10
2019-04-03T06:35:50.141Z,7.10
2019-04-03T06:36:54.320Z,7.20
2019-04-03T06:37:58.677Z,7.20
2019-04-03T06:39:04.361Z,7.20
2019-04-03T06:40:11.572Z,7.30
2019-04-03T06:41:17.584Z,7.30
2019-04-03T06:42:22.329Z,7.30
2019-04-03T06:43:30.214Z,7.30
2019-04-03T06:44:34.959Z,7.30
2019-04-03T06:45:43.266Z,7.40
2019-04-03T06:46:46.659Z,7.40
2019-04-03T06:47:50.770Z,7.40
2019-04-03T06:48:55.414Z,7.50
2019-04-03T06:50:00.006Z,7.50
2019-04-03T06:51:04.246Z,7.50
2019-04-03T06:52:08.381Z,7.50
2019-04-03T06:53:12.436Z,7.50
2019-04-03T06:54:17.169Z,7.50
2019-04-03T06:55:21.272Z,7.60
2019-04-03T06:56:27.003Z,7.60
2019-04-03T06:57:31.261Z,7.60
2019-04-03T06:58:38.658Z,7.70
2019-04-03T06:59:42.216Z,7.70
2019-04-03T07:00:47.929Z,7.70
2019-04-03T07:01:52.867Z,7.70
2019-04-03T07:02:57.808Z,7.80
2019-04-03T07:04:01.871Z,7.80
2019-04-03T07:05:09.583Z,7.80
2019-04-03T07:06:13.721Z,7.80
2019-04-03T07:07:32.099Z,7.90
2019-04-03T07:08:33.034Z,7.90
2019-04-03T07:09:36.133Z,7.90
2019-04-03T07:10:37.049Z,7.90
2019-04-03T07:11:43.246Z,8.00
2019-04-03T07:12:48.612Z,8.00
2019-04-03T07:13:53.862Z,8.00
2019-04-03T07:14:59.965Z,8.10
2019-04-03T07:16:06.147Z,8.10
2019-04-03T07:17:11.749Z,8.10
2019-04-03T07:18:16.483Z,8.10
2019-04-03T07:19:20.626Z,8.20
2019-04-03T07:20:24.959Z,8.20
2019-04-03T07:21:31.715Z,8.30
2019-04-03T07:22:35.864Z,8.30
2019-04-03T07:23:41.533Z,8.30
2019-04-03T07:24:45.671Z,8.30
2019-04-03T07:25:52.394Z,8.30
2019-04-03T07:26:57.787Z,8.40
2019-04-03T07:28:01.977Z,8.40
2019-04-03T07:29:06.212Z,8.50
2019-04-03T07:30:11.740Z,8.50
2019-04-03T07:31:17.508Z,8.50
2019-04-03T07:32:23.525Z,8.50
2019-04-03T07:33:29.417Z,8.50
2019-04-03T07:34:34.594Z,8.60
2019-04-03T07:35:40.219Z,8.60
2019-04-03T07:36:45.558Z,8.60
2019-04-03T07:37:51.433Z,8.60
2019-04-03T07:38:59.065Z,8.60
2019-04-03T07:40:06.044Z,8.60
2019-04-03T07:41:11.447Z,8.60
2019-04-03T07:42:15.593Z,8.70
2019-04-03T07:43:21.136Z,8.70
2019-04-03T07:44:27.657Z,8.80
2019-04-03T07:45:34.206Z,8.80
2019-04-03T07:46:38.300Z,8.80
2019-04-03T07:47:42.377Z,8.80
2019-04-03T07:48:46.915Z,8.90
2019-04-03T07:49:52.523Z,8.90
2019-04-03T07:50:56.594Z,8.90
2019-04-03T07:52:00.847Z,8.90
2019-04-03T07:53:05.046Z,9.00
2019-04-03T07:54:09.374Z,9.00
2019-04-03T07:55:13.728Z,9.00
2019-04-03T07:56:17.825Z,9.10
2019-04-03T07:57:21.999Z,9.10
2019-04-03T07:58:26.087Z,9.10
2019-04-03T07:59:32.031Z,9.20
2019-04-03T08:00:38.384Z,9.20
2019-04-03T08:01:41.988Z,9.20
2019-04-03T08:02:48.614Z,9.20
2019-04-03T08:03:53.384Z,9.20
2019-04-03T08:05:00.873Z,9.30
2019-04-03T08:06:05.215Z,9.30
2019-04-03T08:07:11.015Z,9.30
2019-04-03T08:08:16.686Z,9.40
2019-04-03T08:09:20.859Z,9.40
2019-04-03T08:10:25.297Z,9.40
2019-04-03T08:11:30.840Z,9.50
2019-04-03T08:12:37.221Z,9.50
2019-04-03T08:13:41.551Z,9.50
2019-04-03T08:14:45.743Z,9.60
2019-04-03T08:15:51.850Z,9.60
2019-04-03T08:16:57.231Z,9.60
2019-04-03T08:18:03.864Z,9.70
2019-04-03T08:19:08.753Z,9.70
2019-04-03T08:20:12.954Z,9.80
2019-04-03T08:21:17.811Z,9.80
2019-04-03T08:22:22.379Z,9.80
2019-04-03T08:23:28.699Z,9.80
2019-04-03T08:24:32.907Z,9.90
2019-04-03T08:25:37.139Z,9.90
2019-04-03T08:26:41.685Z,9.90
2019-04-03T08:27:46.743Z,10.00
2019-04-03T08:28:51.420Z,10.00
2019-04-03T08:29:55.766Z,10.00
2019-04-03T08:30:59.896Z,10.00
2019-04-03T08:32:05.439Z,10.10
2019-04-03T08:33:17.527Z,10.10
2019-04-03T08:34:18.585Z,10.20
2019-04-03T08:35:24.031Z,10.20
2019-04-03T08:36:29.554Z,10.20
2019-04-03T08:37:33.792Z,10.30
2019-04-03T08:38:37.942Z,10.30
2019-04-03T08:39:44.397Z,10.30
2019-04-03T08:40:51.437Z,10.30
2019-04-03T08:41:57.135Z,10.40
2019-04-03T08:43:03.050Z,10.40
2019-04-03T08:44:09.231Z,10.50
2019-04-03T08:45:14.200Z,10.50
2019-04-03T08:46:18.875Z,10.50
2019-04-03T08:47:23.170Z,10.60
2019-04-03T08:48:27.263Z,10.60
2019-04-03T08:49:31.685Z,10.60
2019-04-03T08:50:37.653Z,10.60
2019-04-03T08:51:42.122Z,10.70
2019-04-03T08:52:46.457Z,10.70
2019-04-03T08:53:53.758Z,10.70
2019-04-03T08:54:57.042Z,10.70
2019-04-03T08:56:01.480Z,10.70
2019-04-03T08:57:05.729Z,10.80
2019-04-03T08:58:10.020Z,10.80
2019-04-03T08:59:14.069Z,10.80
2019-04-03T09:00:19.560Z,10.90
2019-04-03T09:01:23.637Z,10.90
2019-04-03T09:02:27.843Z,10.90
2019-04-03T09:03:31.992Z,11.00
2019-04-03T09:04:36.848Z,11.00
2019-04-03T09:05:41.092Z,11.00
2019-04-03T09:06:45.177Z,11.00
2019-04-03T09:07:49.573Z,11.10
2019-04-03T09:08:53.739Z,11.10
2019-04-03T09:10:00.905Z,11.10
2019-04-03T09:11:06.684Z,11.10
2019-04-03T09:12:10.827Z,11.20
2019-04-03T09:13:22.420Z,11.20
2019-04-03T09:14:25.007Z,11.30
2019-04-03T09:15:29.258Z,11.30
2019-04-03T09:16:35.623Z,11.30
2019-04-03T09:17:40.726Z,11.30
2019-04-03T09:18:45.318Z,11.40
2019-04-03T09:19:49.720Z,11.40
2019-04-03T09:20:54.755Z,11.50
2019-04-03T09:21:58.881Z,11.50
2019-04-03T09:23:02.974Z,11.50
2019-04-03T09:24:07.140Z,11.50
2019-04-03T09:25:13.456Z,11.60
2019-04-03T09:26:17.888Z,11.60
2019-04-03T09:27:23.318Z,11.60
2019-04-03T09:28:28.891Z,11.60
2019-04-03T09:29:34.184Z,11.70
2019-04-03T09:30:38.347Z,11.70
2019-04-03T09:31:42.576Z,11.70
2019-04-03T09:32:46.720Z,11.80
2019-04-03T09:33:50.825Z,11.80
2019-04-03T09:34:54.980Z,11.80
2019-04-03T09:35:59.932Z,11.80
2019-04-03T09:37:06.339Z,11.80
2019-04-03T09:38:10.311Z,11.90
2019-04-03T09:39:17.558Z,11.90
2019-04-03T09:40:23.024Z,12.00
2019-04-03T09:41:27.303Z,12.00
2019-04-03T09:42:34.283Z,12.10
2019-04-03T09:43:40.143Z,12.10
2019-04-03T09:44:44.302Z,12.10
2019-04-03T09:45:48.436Z,12.20
2019-04-03T09:46:54.146Z,12.20
2019-04-03T09:47:58.351Z,12.20
2019-04-03T09:49:03.759Z,12.30
2019-04-03T09:50:09.846Z,12.30
2019-04-03T09:51:14.260Z,12.30
2019-04-03T09:52:18.378Z,12.40
2019-04-03T09:53:26.389Z,12.40
2019-04-03T09:54:30.646Z,12.40
2019-04-03T09:55:38.130Z,12.50
2019-04-03T09:56:56.870Z,12.50
2019-04-03T09:57:48.175Z,12.50
2019-04-03T09:58:55.769Z,12.50
2019-04-03T10:00:00.376Z,12.60
2019-04-03T10:01:04.560Z,12.60
2019-04-03T10:02:08.708Z,12.60
2019-04-03T10:03:12.939Z,12.60
2019-04-03T10:04:20.034Z,12.60
2019-04-03T10:05:23.320Z,12.60
2019-04-03T10:06:30.983Z,12.70
2019-04-03T10:07:38.306Z,12.70
2019-04-03T10:08:42.600Z,12.70
2019-04-03T10:09:46.774Z,12.80
2019-04-03T10:10:51.118Z,12.80
2019-04-03T10:11:55.166Z,12.80
2019-04-03T10:12:59.238Z,12.90
2019-04-03T10:14:04.846Z,12.90
2019-04-03T10:15:09.919Z,12.90
2019-04-03T10:16:16.128Z,12.90
2019-04-03T10:17:19.787Z,12.90
2019-04-03T10:18:23.898Z,13.00
2019-04-03T10:19:28.197Z,13.00
2019-04-03T10:20:32.489Z,13.00
2019-04-03T10:21:36.586Z,13.00
2019-04-03T10:22:41.702Z,13.00
2019-04-03T10:23:46.070Z,13.10
2019-04-03T10:24:50.193Z,13.10
2019-04-03T10:25:54.776Z,13.10
2019-04-03T10:26:59.221Z,13.10
2019-04-03T10:28:03.366Z,13.20
2019-04-03T10:29:07.540Z,13.20
2019-04-03T10:30:13.742Z,13.20
2019-04-03T10:31:17.846Z,13.30
2019-04-03T10:32:27.177Z,13.30
2019-04-03T10:33:31.529Z,13.30
2019-04-03T10:34:36.233Z,13.30
2019-04-03T10:35:42.182Z,13.30
2019-04-03T10:36:46.337Z,13.30
2019-04-03T10:37:51.948Z,13.40
2019-04-03T10:38:57.948Z,13.40
2019-04-03T10:40:05.968Z,13.40
2019-04-03T10:41:12.464Z,13.40
2019-04-03T10:42:16.672Z,13.40
2019-04-03T10:43:21.017Z,13.50
2019-04-03T10:44:25.506Z,13.50
2019-04-03T10:45:32.730Z,13.50
2019-04-03T10:46:36.962Z,13.60
2019-04-03T10:47:44.610Z,13.60
2019-04-03T10:48:50.464Z,13.60
2019-04-03T10:49:55.321Z,13.60
2019-04-03T10:51:02.896Z,13.70
2019-04-03T10:52:14.358Z,13.70
2019-04-03T10:53:22.936Z,13.70
2019-04-03T10:54:27.292Z,13.80
2019-04-03T10:55:31.615Z,13.80
2019-04-03T10:56:35.823Z,13.80
2019-04-03T10:57:40.330Z,13.80
2019-04-03T10:58:46.420Z,13.90
2019-04-03T10:59:54.086Z,13.80
2019-04-03T11:00:57.209Z,13.80
2019-04-03T11:02:05.610Z,13.90
2019-04-03T11:03:10.562Z,13.90
2019-04-03T11:04:15.045Z,13.90
2019-04-03T11:05:20.568Z,14.00
2019-04-03T11:06:26.326Z,13.90
2019-04-03T11:07:30.364Z,13.90
2019-04-03T11:08:36.046Z,14.00
2019-04-03T11:09:41.788Z,14.00
2019-04-03T11:10:45.884Z,14.00
2019-04-03T11:11:50.052Z,14.00
2019-04-03T11:12:54.571Z,14.10
2019-04-03T11:14:02.223Z,14.10
2019-04-03T11:15:11.707Z,14.10
2019-04-03T11:16:15.891Z,14.10
2019-04-03T11:17:23.774Z,14.10
2019-04-03T11:18:28.750Z,14.20
2019-04-03T11:19:32.765Z,14.20
2019-04-03T11:20:38.882Z,14.20
2019-04-03T11:21:45.576Z,14.20
2019-04-03T11:22:49.681Z,14.20
2019-04-03T11:23:53.882Z,14.20
2019-04-03T11:24:58.153Z,14.20
2019-04-03T11:26:02.572Z,14.20
2019-04-03T11:27:08.382Z,14.20
2019-04-03T11:28:12.575Z,14.20
2019-04-03T11:29:17.102Z,14.20
2019-04-03T11:30:24.544Z,14.20
2019-04-03T11:31:29.501Z,14.20
2019-04-03T11:32:35.082Z,14.30
2019-04-03T11:33:39.256Z,14.30
2019-04-03T11:34:43.544Z,14.30
2019-04-03T11:35:47.840Z,14.30
2019-04-03T11:36:55.128Z,14.30
2019-04-03T11:38:11.697Z,14.30
2019-04-03T11:39:14.987Z,14.30
2019-04-03T11:40:18.967Z,14.20
2019-04-03T11:41:26.130Z,14.30
2019-04-03T11:42:30.576Z,14.20
2019-04-03T11:43:34.777Z,14.30
2019-04-03T11:44:38.939Z,14.30
2019-04-03T11:45:45.161Z,14.30
2019-04-03T11:46:52.086Z,14.30
2019-04-03T11:47:55.640Z,14.30
2019-04-03T11:48:59.995Z,14.30
2019-04-03T11:50:06.171Z,14.30
2019-04-03T11:51:11.991Z,14.30
2019-04-03T11:52:17.386Z,14.30
2019-04-03T11:53:23.169Z,14.30
2019-04-03T11:54:27.378Z,14.30
2019-04-03T11:55:32.143Z,14.40
2019-04-03T11:56:36.394Z,14.40
2019-04-03T11:57:43.001Z,14.40
2019-04-03T11:58:47.211Z,14.40
2019-04-03T11:59:51.257Z,14.40
2019-04-03T12:00:55.396Z,14.40
2019-04-03T12:01:59.686Z,14.40
2019-04-03T12:03:06.647Z,14.40
2019-04-03T12:04:12.793Z,14.40
2019-04-03T12:05:20.606Z,14.40
2019-04-03T12:06:25.254Z,14.40
2019-04-03T12:07:29.415Z,14.50
2019-04-03T12:08:36.097Z,14.40
2019-04-03T12:09:41.640Z,14.50
2019-04-03T12:10:46.093Z,14.50
2019-04-03T12:11:51.532Z,14.50
2019-04-03T12:12:57.296Z,14.50
2019-04-03T12:14:01.563Z,14.50
2019-04-03T12:15:08.985Z,14.50
2019-04-03T12:16:15.306Z,14.50
2019-04-03T12:17:20.003Z,14.50
2019-04-03T12:18:25.659Z,14.50
2019-04-03T12:19:29.750Z,14.60
2019-04-03T12:20:35.608Z,14.60
2019-04-03T12:21:39.697Z,14.60
2019-04-03T12:22:44.268Z,14.60
2019-04-03T12:23:48.586Z,14.60
2019-04-03T12:24:52.791Z,14.60
2019-04-03T12:25:56.995Z,14.60
2019-04-03T12:27:01.310Z,14.60
2019-04-03T12:28:06.776Z,14.60
2019-04-03T12:29:12.242Z,14.60
2019-04-03T12:30:18.306Z,14.60
2019-04-03T12:31:22.544Z,14.60
2019-04-03T12:32:37.340Z,14.70
2019-04-03T12:33:33.902Z,14.70
2019-04-03T12:34:38.290Z,14.70
2019-04-03T12:35:45.094Z,14.70
2019-04-03T12:36:52.087Z,14.70
2019-04-03T12:37:58.973Z,14.70
2019-04-03T12:39:03.505Z,14.70
2019-04-03T12:40:09.426Z,14.70
2019-04-03T12:41:15.805Z,14.70
2019-04-03T12:42:21.475Z,14.70
2019-04-03T12:43:27.772Z,14.70
2019-04-03T12:44:31.999Z,14.70
2019-04-03T12:45:38.229Z,14.70
2019-04-03T12:46:42.436Z,14.70
2019-04-03T12:47:46.639Z,14.70
2019-04-03T12:48:51.409Z,14.70
2019-04-03T12:49:55.459Z,14.70
2019-04-03T12:51:01.161Z,14.70
2019-04-03T12:52:06.892Z,14.70
2019-04-03T12:53:10.967Z,14.70
2019-04-03T12:54:15.182Z,14.70
2019-04-03T12:55:19.715Z,14.70
2019-04-03T12:56:25.355Z,14.70
2019-04-03T12:57:32.321Z,14.80
2019-04-03T12:58:38.529Z,14.80
2019-04-03T12:59:45.264Z,14.80
2019-04-03T13:00:49.358Z,14.80
2019-04-03T13:01:56.099Z,14.80
2019-04-03T13:03:00.533Z,14.80
2019-04-03T13:04:04.925Z,14.80
2019-04-03T13:05:09.886Z,14.80
2019-04-03T13:06:15.815Z,14.80
2019-04-03T13:07:20.430Z,14.80
2019-04-03T13:08:25.078Z,14.80
2019-04-03T13:09:30.740Z,14.80
2019-04-03T13:10:42.678Z,14.80
2019-04-03T13:11:42.538Z,14.80
2019-04-03T13:12:50.283Z,14.80
2019-04-03T13:13:59.471Z,14.70
2019-04-03T13:15:06.879Z,14.70
2019-04-03T13:16:13.885Z,14.80
2019-04-03T13:17:18.123Z,14.80
2019-04-03T13:18:22.291Z,14.80
2019-04-03T13:19:26.582Z,14.80
2019-04-03T13:20:30.776Z,14.80
2019-04-03T13:21:34.993Z,14.80
2019-04-03T13:22:39.997Z,14.80
2019-04-03T13:23:45.816Z,14.90
2019-04-03T13:24:51.722Z,14.80
2019-04-03T13:25:56.249Z,14.90
2019-04-03T13:27:00.584Z,14.80
2019-04-03T13:28:04.985Z,14.80
2019-04-03T13:29:09.520Z,14.80
2019-04-03T13:30:15.512Z,14.80
2019-04-03T13:31:19.763Z,14.90
2019-04-03T13:32:23.957Z,14.80
2019-04-03T13:33:29.868Z,14.80
2019-04-03T13:34:34.160Z,14.90
2019-04-03T13:35:38.417Z,14.90
2019-04-03T13:36:43.204Z,14.90
2019-04-03T13:37:47.496Z,14.90
2019-04-03T13:38:51.824Z,14.90
2019-04-03T13:39:59.892Z,15.00
2019-04-03T13:41:05.294Z,15.00
2019-04-03T13:42:08.744Z,14.90
2019-04-03T13:43:14.029Z,14.90
2019-04-03T13:44:20.153Z,14.90
2019-04-03T13:45:26.062Z,15.00
2019-04-03T13:46:30.421Z,14.90
2019-04-03T13:47:40.484Z,15.00
2019-04-03T13:48:44.985Z,15.00
2019-04-03T13:49:51.239Z,15.00
2019-04-03T13:50:56.814Z,14.90
2019-04-03T13:52:05.878Z,15.00
2019-04-03T13:53:07.116Z,15.00
2019-04-03T13:54:11.522Z,15.00
2019-04-03T13:55:15.703Z,15.00
2019-04-03T13:56:23.185Z,15.00
2019-04-03T13:57:28.331Z,15.00
2019-04-03T13:58:32.802Z,15.00
2019-04-03T13:59:37.132Z,15.00
2019-04-03T14:04:48.378Z,15.00
2019-04-03T14:05:51.182Z,14.90
2019-04-03T14:06:55.361Z,14.90
2019-04-03T14:07:59.719Z,14.90
2019-04-03T14:09:05.614Z,14.90
2019-04-03T14:10:11.893Z,15.00
2019-04-03T14:11:16.364Z,15.00
2019-04-03T14:12:21.369Z,15.00
2019-04-03T14:13:26.632Z,15.00
2019-04-03T14:14:30.891Z,15.00
2019-04-03T14:15:35.478Z,15.00
2019-04-03T14:16:40.391Z,15.00
2019-04-03T14:17:55.317Z,15.00
2019-04-03T14:18:55.505Z,15.00
2019-04-03T14:19:59.695Z,15.00
2019-04-03T14:21:06.216Z,15.00
2019-04-03T14:22:10.951Z,15.00
2019-04-03T14:23:15.297Z,15.00
2019-04-03T14:24:20.967Z,15.00
2019-04-03T14:25:28.068Z,15.00